sensor_id;sensor_type;location;lat;lon;timestamp;P1;durP1;ratioP1;P2;durP2;ratioP2
34080;SDS011;20358;50.272;19.026;2022-07-29T00:01:15;4.20;;;3.17;;
34080;SDS011;20358;50.272;19.026;2022-07-29T00:04:21;3.47;;;2.90;;
34080;SDS011;20358;50.272;19.026;2022-07-29T00:07:30;3.03;;;2.83;;
34080;SDS011;20358;50.272;19.026;2022-07-29T00:10:36;3.43;;;2.90;;
34080;SDS011;20358;50.272;19.026;2022-07-29T00:13:42;2.97;;;2.67;;
34080;SDS011;20358;50.272;19.026;2022-07-29T00:16:51;4.30;;;2.63;;
34080;SDS011;20358;50.272;19.026;2022-07-29T00:19:58;2.90;;;2.57;;
34080;SDS011;20358;50.272;19.026;2022-07-29T00:23:06;3.23;;;2.43;;
34080;SDS011;20358;50.272;19.026;2022-07-29T00:26:15;3.73;;;3.00;;
34080;SDS011;20358;50.272;19.026;2022-07-29T00:29:20;4.30;;;2.50;;
34080;SDS011;20358;50.272;19.026;2022-07-29T00:32:36;3.60;;;2.70;;
34080;SDS011;20358;50.272;19.026;2022-07-29T00:35:41;4.33;;;2.40;;
34080;SDS011;20358;50.272;19.026;2022-07-29T00:38:54;4.90;;;3.03;;
34080;SDS011;20358;50.272;19.026;2022-07-29T00:42:01;3.93;;;2.87;;
34080;SDS011;20358;50.272;19.026;2022-07-29T00:45:08;2.80;;;2.53;;
34080;SDS011;20358;50.272;19.026;2022-07-29T00:48:14;4.83;;;2.70;;
34080;SDS011;20358;50.272;19.026;2022-07-29T00:51:21;4.10;;;2.93;;
34080;SDS011;20358;50.272;19.026;2022-07-29T00:54:30;8.03;;;3.10;;
34080;SDS011;20358;50.272;19.026;2022-07-29T00:57:45;2.80;;;2.27;;
34080;SDS011;20358;50.272;19.026;2022-07-29T01:00:51;4.30;;;2.50;;
34080;SDS011;20358;50.272;19.026;2022-07-29T01:03:58;2.73;;;2.30;;
34080;SDS011;20358;50.272;19.026;2022-07-29T01:07:04;4.07;;;2.70;;
34080;SDS011;20358;50.272;19.026;2022-07-29T01:10:14;4.60;;;2.43;;
34080;SDS011;20358;50.272;19.026;2022-07-29T01:13:20;4.27;;;3.00;;
34080;SDS011;20358;50.272;19.026;2022-07-29T01:16:31;5.10;;;2.77;;
34080;SDS011;20358;50.272;19.026;2022-07-29T01:19:46;5.03;;;2.93;;
34080;SDS011;20358;50.272;19.026;2022-07-29T01:23:11;2.90;;;2.43;;
34080;SDS011;20358;50.272;19.026;2022-07-29T01:26:37;2.53;;;2.07;;
34080;SDS011;20358;50.272;19.026;2022-07-29T01:29:52;2.90;;;2.27;;
34080;SDS011;20358;50.272;19.026;2022-07-29T01:33:05;2.67;;;2.13;;
34080;SDS011;20358;50.272;19.026;2022-07-29T01:36:35;2.90;;;2.17;;
34080;SDS011;20358;50.272;19.026;2022-07-29T01:39:45;4.43;;;2.10;;
34080;SDS011;20358;50.272;19.026;2022-07-29T01:42:54;2.83;;;2.20;;
34080;SDS011;20358;50.272;19.026;2022-07-29T01:46:06;2.43;;;1.80;;
34080;SDS011;20358;50.272;19.026;2022-07-29T01:49:18;2.17;;;1.97;;
34080;SDS011;20358;50.272;19.026;2022-07-29T01:52:31;2.40;;;1.87;;
34080;SDS011;20358;50.272;19.026;2022-07-29T01:55:44;3.93;;;2.13;;
34080;SDS011;20358;50.272;19.026;2022-07-29T01:58:51;2.73;;;2.23;;
34080;SDS011;20358;50.272;19.026;2022-07-29T02:02:02;3.93;;;2.00;;
34080;SDS011;20358;50.272;19.026;2022-07-29T02:05:13;2.37;;;2.07;;
34080;SDS011;20358;50.272;19.026;2022-07-29T02:08:20;5.33;;;2.00;;
34080;SDS011;20358;50.272;19.026;2022-07-29T02:11:27;2.43;;;2.03;;
34080;SDS011;20358;50.272;19.026;2022-07-29T02:14:37;2.40;;;2.10;;
34080;SDS011;20358;50.272;19.026;2022-07-29T02:18:01;3.07;;;2.00;;
34080;SDS011;20358;50.272;19.026;2022-07-29T02:21:10;4.03;;;1.87;;
34080;SDS011;20358;50.272;19.026;2022-07-29T02:24:17;5.33;;;1.87;;
34080;SDS011;20358;50.272;19.026;2022-07-29T02:27:24;5.43;;;2.30;;
34080;SDS011;20358;50.272;19.026;2022-07-29T02:30:34;2.63;;;2.10;;
34080;SDS011;20358;50.272;19.026;2022-07-29T02:33:44;2.17;;;1.93;;
34080;SDS011;20358;50.272;19.026;2022-07-29T02:36:52;2.80;;;2.00;;
34080;SDS011;20358;50.272;19.026;2022-07-29T02:40:02;2.60;;;2.20;;
34080;SDS011;20358;50.272;19.026;2022-07-29T02:43:09;3.23;;;2.20;;
34080;SDS011;20358;50.272;19.026;2022-07-29T02:46:16;1.83;;;1.63;;
34080;SDS011;20358;50.272;19.026;2022-07-29T02:49:35;3.10;;;1.93;;
34080;SDS011;20358;50.272;19.026;2022-07-29T02:52:44;3.47;;;1.80;;
34080;SDS011;20358;50.272;19.026;2022-07-29T02:55:55;2.93;;;1.80;;
34080;SDS011;20358;50.272;19.026;2022-07-29T02:59:06;2.20;;;2.00;;
34080;SDS011;20358;50.272;19.026;2022-07-29T03:02:16;2.77;;;1.77;;
34080;SDS011;20358;50.272;19.026;2022-07-29T03:05:25;2.50;;;1.93;;
34080;SDS011;20358;50.272;19.026;2022-07-29T03:08:32;3.17;;;1.87;;
34080;SDS011;20358;50.272;19.026;2022-07-29T03:11:40;2.07;;;1.87;;
34080;SDS011;20358;50.272;19.026;2022-07-29T03:14:52;2.77;;;2.30;;
34080;SDS011;20358;50.272;19.026;2022-07-29T03:17:58;2.37;;;1.70;;
34080;SDS011;20358;50.272;19.026;2022-07-29T03:21:10;5.27;;;1.90;;
34080;SDS011;20358;50.272;19.026;2022-07-29T03:24:25;2.90;;;1.70;;
34080;SDS011;20358;50.272;19.026;2022-07-29T03:27:36;2.30;;;2.10;;
34080;SDS011;20358;50.272;19.026;2022-07-29T03:30:42;2.23;;;1.93;;
34080;SDS011;20358;50.272;19.026;2022-07-29T03:33:49;2.80;;;1.60;;
34080;SDS011;20358;50.272;19.026;2022-07-29T03:36:57;2.80;;;2.00;;
34080;SDS011;20358;50.272;19.026;2022-07-29T03:40:05;3.07;;;1.80;;
34080;SDS011;20358;50.272;19.026;2022-07-29T03:43:12;2.10;;;1.90;;
34080;SDS011;20358;50.272;19.026;2022-07-29T03:46:22;5.33;;;2.10;;
34080;SDS011;20358;50.272;19.026;2022-07-29T03:49:31;3.37;;;1.77;;
34080;SDS011;20358;50.272;19.026;2022-07-29T03:52:44;2.93;;;1.60;;
34080;SDS011;20358;50.272;19.026;2022-07-29T03:55:52;3.73;;;2.30;;
34080;SDS011;20358;50.272;19.026;2022-07-29T03:59:04;3.30;;;2.10;;
34080;SDS011;20358;50.272;19.026;2022-07-29T04:02:11;5.00;;;1.83;;
34080;SDS011;20358;50.272;19.026;2022-07-29T04:05:24;2.40;;;2.20;;
34080;SDS011;20358;50.272;19.026;2022-07-29T04:08:32;2.80;;;1.90;;
34080;SDS011;20358;50.272;19.026;2022-07-29T04:11:39;2.00;;;1.60;;
34080;SDS011;20358;50.272;19.026;2022-07-29T04:15:04;4.03;;;1.90;;
34080;SDS011;20358;50.272;19.026;2022-07-29T04:18:11;2.30;;;1.90;;
34080;SDS011;20358;50.272;19.026;2022-07-29T04:21:17;5.80;;;1.83;;
34080;SDS011;20358;50.272;19.026;2022-07-29T04:24:26;3.00;;;2.57;;
34080;SDS011;20358;50.272;19.026;2022-07-29T04:27:32;5.63;;;2.17;;
34080;SDS011;20358;50.272;19.026;2022-07-29T04:30:58;2.70;;;1.97;;
34080;SDS011;20358;50.272;19.026;2022-07-29T04:34:04;3.63;;;1.90;;
34080;SDS011;20358;50.272;19.026;2022-07-29T04:37:11;2.90;;;2.33;;
34080;SDS011;20358;50.272;19.026;2022-07-29T04:40:20;3.53;;;2.27;;
34080;SDS011;20358;50.272;19.026;2022-07-29T04:43:26;3.90;;;2.10;;
34080;SDS011;20358;50.272;19.026;2022-07-29T04:46:37;3.23;;;1.90;;
34080;SDS011;20358;50.272;19.026;2022-07-29T04:49:44;3.23;;;2.27;;
34080;SDS011;20358;50.272;19.026;2022-07-29T04:52:49;2.33;;;1.90;;
34080;SDS011;20358;50.272;19.026;2022-07-29T04:55:59;3.43;;;2.20;;
34080;SDS011;20358;50.272;19.026;2022-07-29T04:59:05;6.57;;;2.20;;
34080;SDS011;20358;50.272;19.026;2022-07-29T05:02:14;2.70;;;2.33;;
34080;SDS011;20358;50.272;19.026;2022-07-29T05:05:20;2.10;;;1.90;;
34080;SDS011;20358;50.272;19.026;2022-07-29T05:08:26;2.23;;;2.03;;
34080;SDS011;20358;50.272;19.026;2022-07-29T05:11:34;3.53;;;2.10;;
34080;SDS011;20358;50.272;19.026;2022-07-29T05:14:41;2.93;;;2.20;;
34080;SDS011;20358;50.272;19.026;2022-07-29T05:17:46;4.53;;;2.40;;
34080;SDS011;20358;50.272;19.026;2022-07-29T05:20:52;2.83;;;2.30;;
34080;SDS011;20358;50.272;19.026;2022-07-29T05:24:01;2.40;;;2.20;;
34080;SDS011;20358;50.272;19.026;2022-07-29T05:27:12;2.43;;;2.10;;
34080;SDS011;20358;50.272;19.026;2022-07-29T05:30:18;2.77;;;2.20;;
34080;SDS011;20358;50.272;19.026;2022-07-29T05:33:24;5.60;;;2.50;;
34080;SDS011;20358;50.272;19.026;2022-07-29T05:36:37;2.33;;;2.13;;
34080;SDS011;20358;50.272;19.026;2022-07-29T05:39:47;2.60;;;2.03;;
34080;SDS011;20358;50.272;19.026;2022-07-29T05:43:01;3.50;;;2.40;;
34080;SDS011;20358;50.272;19.026;2022-07-29T05:46:07;2.77;;;2.13;;
34080;SDS011;20358;50.272;19.026;2022-07-29T05:49:13;2.70;;;2.10;;
34080;SDS011;20358;50.272;19.026;2022-07-29T05:52:28;3.93;;;2.10;;
34080;SDS011;20358;50.272;19.026;2022-07-29T05:55:34;3.33;;;2.27;;
34080;SDS011;20358;50.272;19.026;2022-07-29T05:58:44;2.77;;;2.10;;
34080;SDS011;20358;50.272;19.026;2022-07-29T06:01:49;6.13;;;2.40;;
34080;SDS011;20358;50.272;19.026;2022-07-29T06:04:56;2.40;;;2.20;;
34080;SDS011;20358;50.272;19.026;2022-07-29T06:08:02;2.60;;;2.20;;
34080;SDS011;20358;50.272;19.026;2022-07-29T06:11:10;3.63;;;2.10;;
34080;SDS011;20358;50.272;19.026;2022-07-29T06:14:18;2.80;;;2.47;;
34080;SDS011;20358;50.272;19.026;2022-07-29T06:17:24;2.93;;;2.23;;
34080;SDS011;20358;50.272;19.026;2022-07-29T06:20:30;4.13;;;2.73;;
34080;SDS011;20358;50.272;19.026;2022-07-29T06:23:38;4.83;;;2.03;;
34080;SDS011;20358;50.272;19.026;2022-07-29T06:26:44;4.53;;;2.60;;
34080;SDS011;20358;50.272;19.026;2022-07-29T06:29:54;3.90;;;2.23;;
34080;SDS011;20358;50.272;19.026;2022-07-29T06:33:02;5.70;;;2.30;;
34080;SDS011;20358;50.272;19.026;2022-07-29T06:36:09;3.20;;;2.33;;
34080;SDS011;20358;50.272;19.026;2022-07-29T06:39:14;6.33;;;2.63;;
34080;SDS011;20358;50.272;19.026;2022-07-29T06:42:21;3.23;;;2.30;;
34080;SDS011;20358;50.272;19.026;2022-07-29T06:45:29;4.20;;;2.37;;
34080;SDS011;20358;50.272;19.026;2022-07-29T06:48:36;3.67;;;2.70;;
34080;SDS011;20358;50.272;19.026;2022-07-29T06:51:42;5.00;;;2.57;;
34080;SDS011;20358;50.272;19.026;2022-07-29T06:54:49;6.82;;;2.25;;
34080;SDS011;20358;50.272;19.026;2022-07-29T06:57:56;4.05;;;2.58;;
34080;SDS011;20358;50.272;19.026;2022-07-29T07:01:07;2.50;;;2.30;;
34080;SDS011;20358;50.272;19.026;2022-07-29T07:04:14;2.30;;;2.10;;
34080;SDS011;20358;50.272;19.026;2022-07-29T07:07:21;5.95;;;2.05;;
34080;SDS011;20358;50.272;19.026;2022-07-29T07:10:28;3.10;;;2.47;;
34080;SDS011;20358;50.272;19.026;2022-07-29T07:13:34;2.30;;;1.92;;
34080;SDS011;20358;50.272;19.026;2022-07-29T07:16:43;5.18;;;2.25;;
34080;SDS011;20358;50.272;19.026;2022-07-29T07:19:49;3.17;;;2.47;;
34080;SDS011;20358;50.272;19.026;2022-07-29T07:22:55;4.47;;;2.60;;
34080;SDS011;20358;50.272;19.026;2022-07-29T07:26:03;4.63;;;2.47;;
34080;SDS011;20358;50.272;19.026;2022-07-29T07:29:09;2.65;;;2.45;;
34080;SDS011;20358;50.272;19.026;2022-07-29T07:32:18;3.70;;;2.35;;
34080;SDS011;20358;50.272;19.026;2022-07-29T07:35:24;3.35;;;2.53;;
34080;SDS011;20358;50.272;19.026;2022-07-29T07:38:32;2.28;;;2.08;;
34080;SDS011;20358;50.272;19.026;2022-07-29T07:41:37;5.70;;;2.28;;
34080;SDS011;20358;50.272;19.026;2022-07-29T07:44:44;3.28;;;2.33;;
34080;SDS011;20358;50.272;19.026;2022-07-29T07:48:13;4.72;;;2.50;;
34080;SDS011;20358;50.272;19.026;2022-07-29T07:51:19;3.03;;;2.47;;
34080;SDS011;20358;50.272;19.026;2022-07-29T07:54:25;2.80;;;2.03;;
34080;SDS011;20358;50.272;19.026;2022-07-29T07:57:31;2.92;;;2.38;;
34080;SDS011;20358;50.272;19.026;2022-07-29T08:00:37;4.05;;;2.38;;
34080;SDS011;20358;50.272;19.026;2022-07-29T08:03:47;3.22;;;2.30;;
34080;SDS011;20358;50.272;19.026;2022-07-29T08:06:53;6.90;;;2.67;;
34080;SDS011;20358;50.272;19.026;2022-07-29T08:09:59;4.07;;;2.45;;
34080;SDS011;20358;50.272;19.026;2022-07-29T08:13:07;4.93;;;2.20;;
34080;SDS011;20358;50.272;19.026;2022-07-29T08:16:15;3.40;;;2.67;;
34080;SDS011;20358;50.272;19.026;2022-07-29T08:19:31;4.30;;;3.13;;
34080;SDS011;20358;50.272;19.026;2022-07-29T08:22:40;5.18;;;2.58;;
34080;SDS011;20358;50.272;19.026;2022-07-29T08:25:48;5.22;;;2.53;;
34080;SDS011;20358;50.272;19.026;2022-07-29T08:28:56;5.10;;;2.85;;
34080;SDS011;20358;50.272;19.026;2022-07-29T08:32:04;2.90;;;2.60;;
34080;SDS011;20358;50.272;19.026;2022-07-29T08:35:14;2.67;;;2.30;;
34080;SDS011;20358;50.272;19.026;2022-07-29T08:38:19;2.53;;;2.33;;
34080;SDS011;20358;50.272;19.026;2022-07-29T08:41:26;3.13;;;2.42;;
34080;SDS011;20358;50.272;19.026;2022-07-29T08:44:31;3.88;;;2.30;;
34080;SDS011;20358;50.272;19.026;2022-07-29T08:47:39;2.75;;;2.55;;
34080;SDS011;20358;50.272;19.026;2022-07-29T08:50:48;2.92;;;2.53;;
34080;SDS011;20358;50.272;19.026;2022-07-29T08:53:58;3.20;;;2.55;;
34080;SDS011;20358;50.272;19.026;2022-07-29T08:57:04;3.00;;;2.50;;
34080;SDS011;20358;50.272;19.026;2022-07-29T09:00:11;4.50;;;2.72;;
34080;SDS011;20358;50.272;19.026;2022-07-29T09:03:20;4.72;;;2.30;;
34080;SDS011;20358;50.272;19.026;2022-07-29T09:06:32;2.63;;;2.42;;
34080;SDS011;20358;50.272;19.026;2022-07-29T09:09:42;2.80;;;2.58;;
34080;SDS011;20358;50.272;19.026;2022-07-29T09:12:49;3.65;;;2.60;;
34080;SDS011;20358;50.272;19.026;2022-07-29T09:15:55;2.42;;;2.08;;
34080;SDS011;20358;50.272;19.026;2022-07-29T09:19:05;4.03;;;2.67;;
34080;SDS011;20358;50.272;19.026;2022-07-29T09:22:30;3.00;;;2.70;;
34080;SDS011;20358;50.272;19.026;2022-07-29T09:25:43;4.13;;;2.60;;
34080;SDS011;20358;50.272;19.026;2022-07-29T09:28:48;2.75;;;2.40;;
34080;SDS011;20358;50.272;19.026;2022-07-29T09:32:09;4.82;;;2.42;;
34080;SDS011;20358;50.272;19.026;2022-07-29T09:35:15;3.15;;;2.33;;
34080;SDS011;20358;50.272;19.026;2022-07-29T09:38:26;4.60;;;2.78;;
34080;SDS011;20358;50.272;19.026;2022-07-29T09:41:43;3.13;;;2.40;;
34080;SDS011;20358;50.272;19.026;2022-07-29T09:44:50;6.47;;;2.72;;
34080;SDS011;20358;50.272;19.026;2022-07-29T09:47:55;3.50;;;2.58;;
34080;SDS011;20358;50.272;19.026;2022-07-29T09:51:16;2.55;;;2.35;;
34080;SDS011;20358;50.272;19.026;2022-07-29T09:54:41;2.90;;;2.50;;
34080;SDS011;20358;50.272;19.026;2022-07-29T09:57:48;7.53;;;2.58;;
34080;SDS011;20358;50.272;19.026;2022-07-29T10:00:54;3.55;;;2.75;;
34080;SDS011;20358;50.272;19.026;2022-07-29T10:04:02;3.33;;;2.40;;
34080;SDS011;20358;50.272;19.026;2022-07-29T10:07:08;2.47;;;2.22;;
34080;SDS011;20358;50.272;19.026;2022-07-29T10:10:21;2.95;;;2.22;;
34080;SDS011;20358;50.272;19.026;2022-07-29T10:13:28;4.15;;;2.92;;
34080;SDS011;20358;50.272;19.026;2022-07-29T10:16:35;2.83;;;2.58;;
34080;SDS011;20358;50.272;19.026;2022-07-29T10:19:41;3.05;;;2.47;;
34080;SDS011;20358;50.272;19.026;2022-07-29T10:22:48;2.83;;;2.53;;
34080;SDS011;20358;50.272;19.026;2022-07-29T10:25:57;3.70;;;2.58;;
34080;SDS011;20358;50.272;19.026;2022-07-29T10:29:05;3.47;;;2.50;;
34080;SDS011;20358;50.272;19.026;2022-07-29T10:32:26;2.88;;;2.67;;
34080;SDS011;20358;50.272;19.026;2022-07-29T10:35:49;4.05;;;2.30;;
34080;SDS011;20358;50.272;19.026;2022-07-29T10:39:05;5.05;;;3.20;;
34080;SDS011;20358;50.272;19.026;2022-07-29T10:42:28;2.80;;;2.58;;
34080;SDS011;20358;50.272;19.026;2022-07-29T10:45:35;3.03;;;2.40;;
34080;SDS011;20358;50.272;19.026;2022-07-29T10:52:12;3.33;;;2.47;;
34080;SDS011;20358;50.272;19.026;2022-07-29T10:55:32;4.68;;;2.80;;
34080;SDS011;20358;50.272;19.026;2022-07-29T10:58:50;3.40;;;2.33;;
34080;SDS011;20358;50.272;19.026;2022-07-29T11:02:41;3.45;;;2.45;;
34080;SDS011;20358;50.272;19.026;2022-07-29T11:05:51;5.03;;;2.50;;
34080;SDS011;20358;50.272;19.026;2022-07-29T11:09:15;2.75;;;2.55;;
34080;SDS011;20358;50.272;19.026;2022-07-29T11:12:46;3.25;;;2.55;;
34080;SDS011;20358;50.272;19.026;2022-07-29T11:15:56;2.83;;;2.50;;
34080;SDS011;20358;50.272;19.026;2022-07-29T11:19:19;2.97;;;2.58;;
34080;SDS011;20358;50.272;19.026;2022-07-29T11:22:32;4.97;;;2.70;;
34080;SDS011;20358;50.272;19.026;2022-07-29T11:25:52;2.53;;;2.33;;
34080;SDS011;20358;50.272;19.026;2022-07-29T11:29:20;3.65;;;2.55;;
34080;SDS011;20358;50.272;19.026;2022-07-29T11:32:38;3.70;;;2.50;;
34080;SDS011;20358;50.272;19.026;2022-07-29T11:39:26;3.00;;;2.58;;
34080;SDS011;20358;50.272;19.026;2022-07-29T11:42:42;2.80;;;2.60;;
34080;SDS011;20358;50.272;19.026;2022-07-29T11:45:52;3.50;;;2.92;;
34080;SDS011;20358;50.272;19.026;2022-07-29T11:49:02;4.90;;;2.53;;
34080;SDS011;20358;50.272;19.026;2022-07-29T11:52:10;3.30;;;2.60;;
34080;SDS011;20358;50.272;19.026;2022-07-29T11:55:17;2.67;;;2.47;;
34080;SDS011;20358;50.272;19.026;2022-07-29T11:58:37;2.78;;;2.50;;
34080;SDS011;20358;50.272;19.026;2022-07-29T12:01:51;5.75;;;2.00;;
34080;SDS011;20358;50.272;19.026;2022-07-29T12:05:20;4.15;;;2.67;;
34080;SDS011;20358;50.272;19.026;2022-07-29T12:08:40;3.55;;;2.60;;
34080;SDS011;20358;50.272;19.026;2022-07-29T12:11:48;2.83;;;2.38;;
34080;SDS011;20358;50.272;19.026;2022-07-29T12:14:54;4.93;;;2.42;;
34080;SDS011;20358;50.272;19.026;2022-07-29T12:18:08;4.45;;;2.35;;
34080;SDS011;20358;50.272;19.026;2022-07-29T12:21:23;3.92;;;2.80;;
34080;SDS011;20358;50.272;19.026;2022-07-29T12:24:42;3.75;;;2.90;;
34080;SDS011;20358;50.272;19.026;2022-07-29T12:27:57;2.63;;;2.35;;
34080;SDS011;20358;50.272;19.026;2022-07-29T12:31:04;2.72;;;2.45;;
34080;SDS011;20358;50.272;19.026;2022-07-29T12:34:11;3.35;;;2.33;;
34080;SDS011;20358;50.272;19.026;2022-07-29T12:37:22;2.90;;;2.63;;
34080;SDS011;20358;50.272;19.026;2022-07-29T12:40:43;2.38;;;2.28;;
34080;SDS011;20358;50.272;19.026;2022-07-29T12:43:52;2.92;;;2.72;;
34080;SDS011;20358;50.272;19.026;2022-07-29T12:47:02;3.55;;;2.78;;
34080;SDS011;20358;50.272;19.026;2022-07-29T12:50:08;2.75;;;2.55;;
34080;SDS011;20358;50.272;19.026;2022-07-29T12:53:20;3.38;;;2.67;;
34080;SDS011;20358;50.272;19.026;2022-07-29T12:56:25;8.02;;;2.78;;
34080;SDS011;20358;50.272;19.026;2022-07-29T12:59:44;3.60;;;3.25;;
34080;SDS011;20358;50.272;19.026;2022-07-29T13:03:04;2.92;;;2.63;;
34080;SDS011;20358;50.272;19.026;2022-07-29T13:06:28;3.58;;;2.60;;
34080;SDS011;20358;50.272;19.026;2022-07-29T13:09:45;4.68;;;2.75;;
34080;SDS011;20358;50.272;19.026;2022-07-29T13:13:01;4.10;;;2.75;;
34080;SDS011;20358;50.272;19.026;2022-07-29T13:16:08;3.15;;;2.85;;
34080;SDS011;20358;50.272;19.026;2022-07-29T13:19:14;2.97;;;2.50;;
34080;SDS011;20358;50.272;19.026;2022-07-29T13:22:21;3.67;;;3.05;;
34080;SDS011;20358;50.272;19.026;2022-07-29T13:25:31;3.28;;;2.63;;
34080;SDS011;20358;50.272;19.026;2022-07-29T13:28:42;5.60;;;3.08;;
34080;SDS011;20358;50.272;19.026;2022-07-29T13:31:48;2.97;;;2.70;;
34080;SDS011;20358;50.272;19.026;2022-07-29T13:34:54;4.45;;;2.95;;
34080;SDS011;20358;50.272;19.026;2022-07-29T13:38:01;3.90;;;2.70;;
34080;SDS011;20358;50.272;19.026;2022-07-29T13:41:10;3.10;;;2.80;;
34080;SDS011;20358;50.272;19.026;2022-07-29T13:44:16;2.60;;;2.40;;
34080;SDS011;20358;50.272;19.026;2022-07-29T13:47:22;3.33;;;2.78;;
34080;SDS011;20358;50.272;19.026;2022-07-29T13:50:34;3.28;;;2.85;;
34080;SDS011;20358;50.272;19.026;2022-07-29T13:53:39;3.65;;;3.00;;
34080;SDS011;20358;50.272;19.026;2022-07-29T13:56:49;4.05;;;3.10;;
34080;SDS011;20358;50.272;19.026;2022-07-29T13:59:55;3.67;;;2.60;;
34080;SDS011;20358;50.272;19.026;2022-07-29T14:03:10;2.83;;;2.50;;
34080;SDS011;20358;50.272;19.026;2022-07-29T14:06:20;4.65;;;2.90;;
34080;SDS011;20358;50.272;19.026;2022-07-29T14:09:28;2.75;;;2.55;;
34080;SDS011;20358;50.272;19.026;2022-07-29T14:12:45;4.65;;;2.97;;
34080;SDS011;20358;50.272;19.026;2022-07-29T14:15:51;2.70;;;2.50;;
34080;SDS011;20358;50.272;19.026;2022-07-29T14:18:57;5.10;;;3.22;;
34080;SDS011;20358;50.272;19.026;2022-07-29T14:22:05;5.05;;;2.85;;
34080;SDS011;20358;50.272;19.026;2022-07-29T14:25:12;3.65;;;3.08;;
34080;SDS011;20358;50.272;19.026;2022-07-29T14:28:21;5.15;;;2.83;;
34080;SDS011;20358;50.272;19.026;2022-07-29T14:31:26;3.60;;;2.78;;
34080;SDS011;20358;50.272;19.026;2022-07-29T14:34:33;3.22;;;2.92;;
34080;SDS011;20358;50.272;19.026;2022-07-29T14:37:39;3.63;;;2.58;;
34080;SDS011;20358;50.272;19.026;2022-07-29T14:40:45;5.57;;;2.90;;
34080;SDS011;20358;50.272;19.026;2022-07-29T14:43:54;4.13;;;2.97;;
34080;SDS011;20358;50.272;19.026;2022-07-29T14:47:04;5.15;;;3.35;;
34080;SDS011;20358;50.272;19.026;2022-07-29T14:50:10;4.63;;;2.95;;
34080;SDS011;20358;50.272;19.026;2022-07-29T14:53:16;5.05;;;2.72;;
34080;SDS011;20358;50.272;19.026;2022-07-29T14:56:22;4.13;;;3.10;;
34080;SDS011;20358;50.272;19.026;2022-07-29T14:59:41;3.92;;;3.10;;
34080;SDS011;20358;50.272;19.026;2022-07-29T15:02:47;4.80;;;3.00;;
34080;SDS011;20358;50.272;19.026;2022-07-29T15:06:03;3.92;;;3.03;;
34080;SDS011;20358;50.272;19.026;2022-07-29T15:09:09;3.15;;;2.67;;
34080;SDS011;20358;50.272;19.026;2022-07-29T15:12:15;4.00;;;3.22;;
34080;SDS011;20358;50.272;19.026;2022-07-29T15:15:24;5.07;;;3.03;;
34080;SDS011;20358;50.272;19.026;2022-07-29T15:18:30;3.83;;;2.88;;
34080;SDS011;20358;50.272;19.026;2022-07-29T15:21:36;6.72;;;3.00;;
34080;SDS011;20358;50.272;19.026;2022-07-29T15:25:02;5.05;;;3.15;;
34080;SDS011;20358;50.272;19.026;2022-07-29T15:28:08;3.40;;;2.80;;
34080;SDS011;20358;50.272;19.026;2022-07-29T15:31:18;5.38;;;3.17;;
34080;SDS011;20358;50.272;19.026;2022-07-29T15:34:23;4.28;;;3.25;;
34080;SDS011;20358;50.272;19.026;2022-07-29T15:37:30;4.47;;;2.80;;
34080;SDS011;20358;50.272;19.026;2022-07-29T15:40:50;6.60;;;2.97;;
34080;SDS011;20358;50.272;19.026;2022-07-29T15:43:56;3.78;;;3.00;;
34080;SDS011;20358;50.272;19.026;2022-07-29T15:47:05;3.08;;;2.78;;
34080;SDS011;20358;50.272;19.026;2022-07-29T15:50:11;4.40;;;3.00;;
34080;SDS011;20358;50.272;19.026;2022-07-29T15:53:17;4.07;;;3.05;;
34080;SDS011;20358;50.272;19.026;2022-07-29T15:56:24;3.22;;;2.92;;
34080;SDS011;20358;50.272;19.026;2022-07-29T15:59:29;5.40;;;3.65;;
34080;SDS011;20358;50.272;19.026;2022-07-29T16:02:39;3.75;;;3.45;;
34080;SDS011;20358;50.272;19.026;2022-07-29T16:05:45;4.85;;;4.10;;
34080;SDS011;20358;50.272;19.026;2022-07-29T16:08:51;7.05;;;4.25;;
34080;SDS011;20358;50.272;19.026;2022-07-29T16:11:57;5.70;;;4.28;;
34080;SDS011;20358;50.272;19.026;2022-07-29T16:15:12;5.68;;;4.80;;
34080;SDS011;20358;50.272;19.026;2022-07-29T16:18:20;7.60;;;3.90;;
34080;SDS011;20358;50.272;19.026;2022-07-29T16:21:31;4.45;;;3.83;;
34080;SDS011;20358;50.272;19.026;2022-07-29T16:24:37;6.55;;;3.70;;
34080;SDS011;20358;50.272;19.026;2022-07-29T16:27:44;4.47;;;3.88;;
34080;SDS011;20358;50.272;19.026;2022-07-29T16:30:49;4.22;;;3.70;;
34080;SDS011;20358;50.272;19.026;2022-07-29T16:33:59;3.75;;;3.35;;
34080;SDS011;20358;50.272;19.026;2022-07-29T16:37:05;4.80;;;3.10;;
34080;SDS011;20358;50.272;19.026;2022-07-29T16:40:11;4.82;;;3.30;;
34080;SDS011;20358;50.272;19.026;2022-07-29T16:43:17;4.35;;;3.30;;
34080;SDS011;20358;50.272;19.026;2022-07-29T16:46:24;4.85;;;3.47;;
34080;SDS011;20358;50.272;19.026;2022-07-29T16:49:33;6.22;;;3.28;;
34080;SDS011;20358;50.272;19.026;2022-07-29T16:52:40;5.28;;;3.70;;
34080;SDS011;20358;50.272;19.026;2022-07-29T16:55:45;5.97;;;3.58;;
34080;SDS011;20358;50.272;19.026;2022-07-29T16:58:53;4.47;;;3.50;;
34080;SDS011;20358;50.272;19.026;2022-07-29T17:01:58;6.15;;;3.78;;
34080;SDS011;20358;50.272;19.026;2022-07-29T17:05:09;3.97;;;3.58;;
34080;SDS011;20358;50.272;19.026;2022-07-29T17:08:16;3.67;;;3.38;;
34080;SDS011;20358;50.272;19.026;2022-07-29T17:11:23;3.95;;;3.63;;
34080;SDS011;20358;50.272;19.026;2022-07-29T17:14:48;4.20;;;3.80;;
34080;SDS011;20358;50.272;19.026;2022-07-29T17:17:55;3.83;;;3.53;;
34080;SDS011;20358;50.272;19.026;2022-07-29T17:21:16;6.22;;;3.60;;
34080;SDS011;20358;50.272;19.026;2022-07-29T17:24:23;6.15;;;3.75;;
34080;SDS011;20358;50.272;19.026;2022-07-29T17:27:29;3.85;;;3.55;;
34080;SDS011;20358;50.272;19.026;2022-07-29T17:30:37;3.85;;;3.45;;
34080;SDS011;20358;50.272;19.026;2022-07-29T17:33:42;6.05;;;4.13;;
34080;SDS011;20358;50.272;19.026;2022-07-29T17:36:51;4.50;;;3.83;;
34080;SDS011;20358;50.272;19.026;2022-07-29T17:39:57;6.20;;;3.72;;
34080;SDS011;20358;50.272;19.026;2022-07-29T17:43:04;4.20;;;3.80;;
34080;SDS011;20358;50.272;19.026;2022-07-29T17:46:10;4.10;;;3.70;;
34080;SDS011;20358;50.272;19.026;2022-07-29T17:49:17;4.28;;;3.88;;
34080;SDS011;20358;50.272;19.026;2022-07-29T17:52:25;5.10;;;4.55;;
34080;SDS011;20358;50.272;19.026;2022-07-29T17:55:31;6.22;;;4.45;;
34080;SDS011;20358;50.272;19.026;2022-07-29T17:58:37;5.32;;;4.55;;
34080;SDS011;20358;50.272;19.026;2022-07-29T18:01:44;5.28;;;4.50;;
34080;SDS011;20358;50.272;19.026;2022-07-29T18:04:50;4.82;;;4.43;;
34080;SDS011;20358;50.272;19.026;2022-07-29T18:07:59;4.85;;;4.25;;
34080;SDS011;20358;50.272;19.026;2022-07-29T18:11:06;4.55;;;4.15;;
34080;SDS011;20358;50.272;19.026;2022-07-29T18:14:16;5.10;;;3.78;;
34080;SDS011;20358;50.272;19.026;2022-07-29T18:17:21;6.72;;;4.30;;
34080;SDS011;20358;50.272;19.026;2022-07-29T18:20:48;4.47;;;4.10;;
34080;SDS011;20358;50.272;19.026;2022-07-29T18:23:56;4.68;;;4.03;;
34080;SDS011;20358;50.272;19.026;2022-07-29T18:27:03;5.78;;;4.55;;
34080;SDS011;20358;50.272;19.026;2022-07-29T18:30:08;5.50;;;5.00;;
34080;SDS011;20358;50.272;19.026;2022-07-29T18:33:16;6.82;;;4.78;;
34080;SDS011;20358;50.272;19.026;2022-07-29T18:36:23;5.90;;;4.68;;
34080;SDS011;20358;50.272;19.026;2022-07-29T18:39:32;5.60;;;4.53;;
34080;SDS011;20358;50.272;19.026;2022-07-29T18:42:38;4.45;;;4.05;;
34080;SDS011;20358;50.272;19.026;2022-07-29T18:45:45;5.93;;;4.97;;
34080;SDS011;20358;50.272;19.026;2022-07-29T18:48:51;6.70;;;4.53;;
34080;SDS011;20358;50.272;19.026;2022-07-29T18:51:59;5.10;;;4.47;;